sensor_id;sensor_type;location;lat;lon;timestamp;pressure;altitude;pressure_sealevel;temperature;humidity
68301;BME280;55146;47.468;18.806;2023-06-14T00:00:12;99710.41;;;14.61;79.89
68301;BME280;55146;47.468;18.806;2023-06-14T00:02:39;99714.44;;;14.55;80.05
68301;BME280;55146;47.468;18.806;2023-06-14T00:05:07;99715.56;;;14.54;80.10
68301;BME280;55146;47.468;18.806;2023-06-14T00:07:37;99712.78;;;14.54;80.38
68301;BME280;55146;47.468;18.806;2023-06-14T00:10:13;99717.19;;;14.55;80.51
68301;BME280;55146;47.468;18.806;2023-06-14T00:12:39;99717.81;;;14.52;80.25
68301;BME280;55146;47.468;18.806;2023-06-14T00:15:06;99716.78;;;14.48;80.52
68301;BME280;55146;47.468;18.806;2023-06-14T00:17:32;99713.81;;;14.44;80.56
68301;BME280;55146;47.468;18.806;2023-06-14T00:19:58;99718.22;;;14.45;80.52
68301;BME280;55146;47.468;18.806;2023-06-14T00:22:24;99719.34;;;14.44;80.69
68301;BME280;55146;47.468;18.806;2023-06-14T00:24:53;99724.56;;;14.46;80.66
68301;BME280;55146;47.468;18.806;2023-06-14T00:27:18;99728.47;;;14.45;80.65
68301;BME280;55146;47.468;18.806;2023-06-14T00:29:44;99732.06;;;14.45;80.92
68301;BME280;55146;47.468;18.806;2023-06-14T00:32:09;99730.09;;;14.46;81.00
68301;BME280;55146;47.468;18.806;2023-06-14T00:34:35;99737.09;;;14.43;80.92
68301;BME280;55146;47.468;18.806;2023-06-14T00:37:01;99730.94;;;14.46;81.26
68301;BME280;55146;47.468;18.806;2023-06-14T00:39:26;99736.28;;;14.43;81.20
68301;BME280;55146;47.468;18.806;2023-06-14T00:41:51;99737.47;;;14.37;81.35
68301;BME280;55146;47.468;18.806;2023-06-14T00:44:17;99741.97;;;14.33;81.43
68301;BME280;55146;47.468;18.806;2023-06-14T00:46:45;99735.22;;;14.25;81.55
68301;BME280;55146;47.468;18.806;2023-06-14T00:49:12;99736.34;;;14.24;81.50
68301;BME280;55146;47.468;18.806;2023-06-14T00:51:40;99744.97;;;14.23;81.16
68301;BME280;55146;47.468;18.806;2023-06-14T00:54:06;99750.78;;;14.07;81.55
68301;BME280;55146;47.468;18.806;2023-06-14T00:56:31;99755.19;;;14.08;81.59
68301;BME280;55146;47.468;18.806;2023-06-14T00:58:57;99742.06;;;14.14;81.61
68301;BME280;55146;47.468;18.806;2023-06-14T01:01:23;99744.75;;;14.05;81.58
68301;BME280;55146;47.468;18.806;2023-06-14T01:03:49;99743.00;;;14.09;81.58
68301;BME280;55146;47.468;18.806;2023-06-14T01:06:30;99745.47;;;14.11;81.52
68301;BME280;55146;47.468;18.806;2023-06-14T01:12:28;99743.00;;;14.09;81.18
68301;BME280;55146;47.468;18.806;2023-06-14T01:14:25;99744.94;;;14.09;81.17
68301;BME280;55146;47.468;18.806;2023-06-14T01:16:52;99745.03;;;14.04;81.06
68301;BME280;55146;47.468;18.806;2023-06-14T01:19:18;99734.50;;;14.06;81.76
68301;BME280;55146;47.468;18.806;2023-06-14T01:21:47;99733.97;;;14.04;81.48
68301;BME280;55146;47.468;18.806;2023-06-14T01:24:16;99731.50;;;14.02;81.49
68301;BME280;55146;47.468;18.806;2023-06-14T01:26:41;99727.44;;;14.00;81.21
68301;BME280;55146;47.468;18.806;2023-06-14T01:29:11;99733.78;;;14.00;81.20
68301;BME280;55146;47.468;18.806;2023-06-14T01:31:37;99731.72;;;13.92;80.99
68301;BME280;55146;47.468;18.806;2023-06-14T01:34:07;99733.97;;;13.90;80.88
68301;BME280;55146;47.468;18.806;2023-06-14T01:36:34;99726.28;;;13.87;80.67
68301;BME280;55146;47.468;18.806;2023-06-14T01:39:01;99727.50;;;13.81;80.88
68301;BME280;55146;47.468;18.806;2023-06-14T01:41:28;99739.25;;;13.73;81.21
68301;BME280;55146;47.468;18.806;2023-06-14T01:43:55;99735.88;;;13.62;81.44
68301;BME280;55146;47.468;18.806;2023-06-14T01:46:22;99739.34;;;13.68;81.73
68301;BME280;55146;47.468;18.806;2023-06-14T01:48:48;99740.38;;;13.72;81.91
68301;BME280;55146;47.468;18.806;2023-06-14T01:51:14;99735.34;;;13.60;82.46
68301;BME280;55146;47.468;18.806;2023-06-14T01:53:39;99739.88;;;13.70;82.32
68301;BME280;55146;47.468;18.806;2023-06-14T01:56:05;99739.97;;;13.78;81.90
68301;BME280;55146;47.468;18.806;2023-06-14T01:58:32;99731.06;;;13.68;82.57
68301;BME280;55146;47.468;18.806;2023-06-14T02:00:58;99744.34;;;13.66;82.89
68301;BME280;55146;47.468;18.806;2023-06-14T02:03:26;99737.62;;;13.72;82.36
68301;BME280;55146;47.468;18.806;2023-06-14T02:05:51;99747.16;;;13.80;81.85
68301;BME280;55146;47.468;18.806;2023-06-14T02:08:17;99747.34;;;13.83;81.87
68301;BME280;55146;47.468;18.806;2023-06-14T02:10:42;99748.72;;;13.86;82.22
68301;BME280;55146;47.468;18.806;2023-06-14T02:13:07;99750.25;;;13.92;81.60
68301;BME280;55146;47.468;18.806;2023-06-14T02:15:33;99749.44;;;13.91;82.31
68301;BME280;55146;47.468;18.806;2023-06-14T02:18:02;99742.56;;;13.89;83.13
68301;BME280;55146;47.468;18.806;2023-06-14T02:20:28;99749.22;;;13.88;83.34
68301;BME280;55146;47.468;18.806;2023-06-14T02:22:54;99748.31;;;13.92;82.96
68301;BME280;55146;47.468;18.806;2023-06-14T02:25:19;99744.03;;;14.00;81.97
68301;BME280;55146;47.468;18.806;2023-06-14T02:27:45;99741.13;;;13.91;83.01
68301;BME280;55146;47.468;18.806;2023-06-14T02:30:11;99742.97;;;13.96;83.18
68301;BME280;55146;47.468;18.806;2023-06-14T02:32:36;99742.09;;;14.00;82.46
68301;BME280;55146;47.468;18.806;2023-06-14T02:35:02;99737.03;;;14.02;82.26
68301;BME280;55146;47.468;18.806;2023-06-14T02:37:28;99742.16;;;14.09;81.72
68301;BME280;55146;47.468;18.806;2023-06-14T02:39:56;99740.03;;;14.06;82.19
68301;BME280;55146;47.468;18.806;2023-06-14T02:42:21;99735.72;;;14.13;81.14
68301;BME280;55146;47.468;18.806;2023-06-14T02:44:46;99729.38;;;14.13;81.24
68301;BME280;55146;47.468;18.806;2023-06-14T02:47:16;99739.38;;;13.95;82.51
68301;BME280;55146;47.468;18.806;2023-06-14T02:49:42;99732.72;;;13.96;82.52
68301;BME280;55146;47.468;18.806;2023-06-14T02:52:07;99734.47;;;13.92;83.24
68301;BME280;55146;47.468;18.806;2023-06-14T02:54:34;99722.31;;;13.93;83.37
68301;BME280;55146;47.468;18.806;2023-06-14T02:57:00;99731.91;;;13.96;83.15
68301;BME280;55146;47.468;18.806;2023-06-14T02:59:25;99735.63;;;14.05;82.78
68301;BME280;55146;47.468;18.806;2023-06-14T03:01:51;99734.59;;;14.01;83.11
68301;BME280;55146;47.468;18.806;2023-06-14T03:04:16;99738.38;;;14.05;83.52
68301;BME280;55146;47.468;18.806;2023-06-14T03:06:42;99731.81;;;14.14;82.55
68301;BME280;55146;47.468;18.806;2023-06-14T03:09:09;99729.88;;;14.15;82.39
68301;BME280;55146;47.468;18.806;2023-06-14T03:11:34;99732.34;;;14.16;81.29
68301;BME280;55146;47.468;18.806;2023-06-14T03:14:01;99732.47;;;14.11;82.18
68301;BME280;55146;47.468;18.806;2023-06-14T03:16:28;99734.69;;;14.09;82.42
68301;BME280;55146;47.468;18.806;2023-06-14T03:18:55;99727.94;;;14.02;83.24
68301;BME280;55146;47.468;18.806;2023-06-14T03:21:21;99731.03;;;14.00;82.97
68301;BME280;55146;47.468;18.806;2023-06-14T03:23:47;99736.25;;;14.15;82.56
68301;BME280;55146;47.468;18.806;2023-06-14T03:26:13;99742.69;;;14.11;82.82
68301;BME280;55146;47.468;18.806;2023-06-14T03:28:39;99745.66;;;14.14;82.54
68301;BME280;55146;47.468;18.806;2023-06-14T03:31:05;99751.00;;;14.11;82.90
68301;BME280;55146;47.468;18.806;2023-06-14T03:33:30;99754.88;;;14.10;83.12
68301;BME280;55146;47.468;18.806;2023-06-14T03:35:55;99758.66;;;14.14;83.29
68301;BME280;55146;47.468;18.806;2023-06-14T03:38:21;99751.59;;;14.08;84.04
68301;BME280;55146;47.468;18.806;2023-06-14T03:40:47;99756.22;;;14.12;83.93
68301;BME280;55146;47.468;18.806;2023-06-14T03:43:12;99752.66;;;14.12;84.40
68301;BME280;55146;47.468;18.806;2023-06-14T03:45:37;99749.56;;;14.27;83.56
68301;BME280;55146;47.468;18.806;2023-06-14T03:48:03;99756.31;;;14.21;83.81
68301;BME280;55146;47.468;18.806;2023-06-14T03:50:31;99765.16;;;14.23;83.74
68301;BME280;55146;47.468;18.806;2023-06-14T03:52:57;99769.66;;;14.19;84.02
68301;BME280;55146;47.468;18.806;2023-06-14T03:55:22;99771.78;;;14.22;83.99
68301;BME280;55146;47.468;18.806;2023-06-14T03:57:51;99769.44;;;14.29;83.64
68301;BME280;55146;47.468;18.806;2023-06-14T04:00:16;99766.38;;;14.31;83.82
68301;BME280;55146;47.468;18.806;2023-06-14T04:02:43;99773.75;;;14.35;83.70
68301;BME280;55146;47.468;18.806;2023-06-14T04:05:09;99765.25;;;14.45;82.43
68301;BME280;55146;47.468;18.806;2023-06-14T04:07:35;99770.19;;;14.48;82.25
68301;BME280;55146;47.468;18.806;2023-06-14T04:10:11;99767.72;;;14.47;82.66
68301;BME280;55146;47.468;18.806;2023-06-14T04:12:37;99776.16;;;14.42;82.80
68301;BME280;55146;47.468;18.806;2023-06-14T04:15:02;99780.03;;;14.41;83.53
68301;BME280;55146;47.468;18.806;2023-06-14T04:17:29;99774.19;;;14.42;83.63
68301;BME280;55146;47.468;18.806;2023-06-14T04:19:55;99780.16;;;14.49;83.70
68301;BME280;55146;47.468;18.806;2023-06-14T04:22:20;99784.12;;;14.57;83.34
68301;BME280;55146;47.468;18.806;2023-06-14T04:24:45;99780.34;;;14.53;83.12
68301;BME280;55146;47.468;18.806;2023-06-14T04:27:11;99789.16;;;14.55;83.18
68301;BME280;55146;47.468;18.806;2023-06-14T04:29:36;99784.66;;;14.59;82.60
68301;BME280;55146;47.468;18.806;2023-06-14T04:32:02;99780.22;;;14.58;83.27
68301;BME280;55146;47.468;18.806;2023-06-14T04:34:28;99792.75;;;14.55;82.38
68301;BME280;55146;47.468;18.806;2023-06-14T04:36:59;99785.56;;;14.54;83.20
68301;BME280;55146;47.468;18.806;2023-06-14T04:39:26;99798.72;;;14.63;83.17
68301;BME280;55146;47.468;18.806;2023-06-14T04:41:53;99797.88;;;14.62;82.53
68301;BME280;55146;47.468;18.806;2023-06-14T04:44:22;99800.53;;;14.67;82.60
68301;BME280;55146;47.468;18.806;2023-06-14T04:46:49;99806.16;;;14.76;82.85
68301;BME280;55146;47.468;18.806;2023-06-14T04:49:15;99803.59;;;14.79;81.69
68301;BME280;55146;47.468;18.806;2023-06-14T04:51:42;99802.16;;;14.82;82.34
68301;BME280;55146;47.468;18.806;2023-06-14T04:54:11;99797.22;;;14.92;81.35
68301;BME280;55146;47.468;18.806;2023-06-14T04:56:39;99804.41;;;14.93;81.49
68301;BME280;55146;47.468;18.806;2023-06-14T04:59:05;99801.84;;;14.97;81.35
68301;BME280;55146;47.468;18.806;2023-06-14T05:01:31;99797.69;;;15.08;81.00
68301;BME280;55146;47.468;18.806;2023-06-14T05:03:59;99795.94;;;15.12;80.18
68301;BME280;55146;47.468;18.806;2023-06-14T05:06:25;99799.88;;;15.11;80.26
68301;BME280;55146;47.468;18.806;2023-06-14T05:08:53;99803.00;;;15.18;80.21
68301;BME280;55146;47.468;18.806;2023-06-14T05:11:19;99809.87;;;15.21;80.58
68301;BME280;55146;47.468;18.806;2023-06-14T05:13:44;99810.47;;;15.31;80.07
68301;BME280;55146;47.468;18.806;2023-06-14T05:16:11;99803.34;;;15.39;80.26
68301;BME280;55146;47.468;18.806;2023-06-14T05:18:36;99812.06;;;15.46;79.73
68301;BME280;55146;47.468;18.806;2023-06-14T05:21:02;99805.81;;;15.54;79.66
68301;BME280;55146;47.468;18.806;2023-06-14T05:23:29;99815.31;;;15.62;79.12
68301;BME280;55146;47.468;18.806;2023-06-14T05:25:55;99809.13;;;15.65;78.37
68301;BME280;55146;47.468;18.806;2023-06-14T05:28:20;99815.69;;;15.69;78.62
68301;BME280;55146;47.468;18.806;2023-06-14T05:30:45;99809.25;;;15.82;77.72
68301;BME280;55146;47.468;18.806;2023-06-14T05:33:11;99813.38;;;15.85;77.97
68301;BME280;55146;47.468;18.806;2023-06-14T05:35:36;99818.91;;;15.85;78.30
68301;BME280;55146;47.468;18.806;2023-06-14T05:38:03;99814.88;;;15.91;78.58
68301;BME280;55146;47.468;18.806;2023-06-14T05:40:28;99816.34;;;16.19;77.87
68301;BME280;55146;47.468;18.806;2023-06-14T05:42:53;99817.59;;;16.35;76.98
68301;BME280;55146;47.468;18.806;2023-06-14T05:45:19;99822.84;;;16.45;76.59
68301;BME280;55146;47.468;18.806;2023-06-14T05:47:44;99817.81;;;16.56;77.21
68301;BME280;55146;47.468;18.806;2023-06-14T05:50:09;99819.19;;;16.67;77.59
68301;BME280;55146;47.468;18.806;2023-06-14T05:52:35;99823.66;;;16.85;75.51
68301;BME280;55146;47.468;18.806;2023-06-14T05:55:02;99823.81;;;16.80;74.69
68301;BME280;55146;47.468;18.806;2023-06-14T05:57:28;99819.38;;;16.79;75.10
68301;BME280;55146;47.468;18.806;2023-06-14T05:59:54;99818.94;;;16.94;74.54
68301;BME280;55146;47.468;18.806;2023-06-14T06:02:20;99813.75;;;17.10;73.94
68301;BME280;55146;47.468;18.806;2023-06-14T06:04:45;99813.44;;;17.03;74.99
68301;BME280;55146;47.468;18.806;2023-06-14T06:07:11;99811.13;;;17.05;76.72
68301;BME280;55146;47.468;18.806;2023-06-14T06:09:36;99825.06;;;17.31;74.17
68301;BME280;55146;47.468;18.806;2023-06-14T06:12:02;99822.47;;;17.60;73.30
68301;BME280;55146;47.468;18.806;2023-06-14T06:14:28;99825.06;;;17.91;73.11
68301;BME280;55146;47.468;18.806;2023-06-14T06:16:54;99817.47;;;18.26;69.18
68301;BME280;55146;47.468;18.806;2023-06-14T06:19:19;99821.53;;;18.29;69.22
68301;BME280;55146;47.468;18.806;2023-06-14T06:21:45;99818.84;;;18.58;70.31
68301;BME280;55146;47.468;18.806;2023-06-14T06:24:10;99820.75;;;19.04;67.06
68301;BME280;55146;47.468;18.806;2023-06-14T06:26:36;99820.09;;;19.28;64.00
68301;BME280;55146;47.468;18.806;2023-06-14T06:29:01;99814.47;;;19.07;64.05
68301;BME280;55146;47.468;18.806;2023-06-14T06:31:27;99815.16;;;19.04;63.93
68301;BME280;55146;47.468;18.806;2023-06-14T06:33:53;99817.37;;;19.19;63.19
68301;BME280;55146;47.468;18.806;2023-06-14T06:36:19;99820.22;;;19.11;63.92
68301;BME280;55146;47.468;18.806;2023-06-14T06:38:45;99816.47;;;19.07;64.31
68301;BME280;55146;47.468;18.806;2023-06-14T06:43:54;99820.69;;;19.13;65.17
68301;BME280;55146;47.468;18.806;2023-06-14T06:46:20;99825.47;;;19.33;64.30
68301;BME280;55146;47.468;18.806;2023-06-14T06:48:45;99817.91;;;19.33;64.40
68301;BME280;55146;47.468;18.806;2023-06-14T06:51:10;99816.22;;;19.41;63.39
68301;BME280;55146;47.468;18.806;2023-06-14T06:53:36;99823.78;;;19.40;63.44
68301;BME280;55146;47.468;18.806;2023-06-14T06:56:02;99828.63;;;19.31;64.69
68301;BME280;55146;47.468;18.806;2023-06-14T06:58:27;99823.91;;;19.23;65.73
68301;BME280;55146;47.468;18.806;2023-06-14T07:00:53;99832.63;;;19.63;66.20
68301;BME280;55146;47.468;18.806;2023-06-14T07:03:18;99832.19;;;19.94;61.85
68301;BME280;55146;47.468;18.806;2023-06-14T07:05:43;99834.28;;;19.85;61.59
68301;BME280;55146;47.468;18.806;2023-06-14T07:08:09;99843.19;;;19.78;62.54
68301;BME280;55146;47.468;18.806;2023-06-14T07:10:34;99839.81;;;20.06;62.79
68301;BME280;55146;47.468;18.806;2023-06-14T07:13:00;99838.78;;;20.43;61.10
68301;BME280;55146;47.468;18.806;2023-06-14T07:15:25;99830.50;;;20.35;61.16
68301;BME280;55146;47.468;18.806;2023-06-14T07:17:50;99825.94;;;20.30;61.59
68301;BME280;55146;47.468;18.806;2023-06-14T07:20:16;99837.41;;;20.62;59.87
68301;BME280;55146;47.468;18.806;2023-06-14T07:22:42;99834.03;;;20.92;58.94
68301;BME280;55146;47.468;18.806;2023-06-14T07:25:11;99829.62;;;20.79;58.68
68301;BME280;55146;47.468;18.806;2023-06-14T07:27:43;99829.62;;;20.55;59.54
68301;BME280;55146;47.468;18.806;2023-06-14T07:30:09;99836.09;;;20.35;59.23
68301;BME280;55146;47.468;18.806;2023-06-14T07:32:34;99838.50;;;20.24;60.77
68301;BME280;55146;47.468;18.806;2023-06-14T07:35:00;99844.81;;;20.12;61.62
68301;BME280;55146;47.468;18.806;2023-06-14T07:37:25;99846.47;;;20.13;61.21
68301;BME280;55146;47.468;18.806;2023-06-14T07:39:50;99847.56;;;20.00;61.11
68301;BME280;55146;47.468;18.806;2023-06-14T07:42:16;99848.13;;;19.94;62.50
68301;BME280;55146;47.468;18.806;2023-06-14T07:44:41;99850.91;;;20.14;61.11
68301;BME280;55146;47.468;18.806;2023-06-14T07:47:06;99853.66;;;20.02;62.30
68301;BME280;55146;47.468;18.806;2023-06-14T07:49:32;99848.53;;;20.04;63.26
68301;BME280;55146;47.468;18.806;2023-06-14T07:51:57;99855.25;;;20.24;61.97
68301;BME280;55146;47.468;18.806;2023-06-14T07:54:24;99855.69;;;20.47;61.32
68301;BME280;55146;47.468;18.806;2023-06-14T07:56:51;99855.81;;;20.75;60.51
68301;BME280;55146;47.468;18.806;2023-06-14T07:59:17;99855.50;;;21.00;59.43
68301;BME280;55146;47.468;18.806;2023-06-14T08:01:42;99863.06;;;21.12;59.00
68301;BME280;55146;47.468;18.806;2023-06-14T08:04:14;99857.13;;;21.02;58.54
68301;BME280;55146;47.468;18.806;2023-06-14T08:06:40;99853.41;;;20.85;58.55
68301;BME280;55146;47.468;18.806;2023-06-14T08:09:09;99859.66;;;20.70;57.89
68301;BME280;55146;47.468;18.806;2023-06-14T08:11:34;99860.97;;;20.73;58.25
68301;BME280;55146;47.468;18.806;2023-06-14T08:14:00;99858.75;;;20.78;58.10
68301;BME280;55146;47.468;18.806;2023-06-14T08:16:25;99855.63;;;20.80;57.17
68301;BME280;55146;47.468;18.806;2023-06-14T08:18:51;99858.16;;;20.73;56.03
68301;BME280;55146;47.468;18.806;2023-06-14T08:21:16;99859.19;;;20.56;56.31
68301;BME280;55146;47.468;18.806;2023-06-14T08:23:41;99862.94;;;20.27;57.92
68301;BME280;55146;47.468;18.806;2023-06-14T08:26:18;99860.91;;;20.15;58.89
68301;BME280;55146;47.468;18.806;2023-06-14T08:28:43;99862.19;;;19.85;59.79
68301;BME280;55146;47.468;18.806;2023-06-14T08:31:09;99868.00;;;19.80;59.33
68301;BME280;55146;47.468;18.806;2023-06-14T08:33:34;99875.00;;;19.86;60.39
68301;BME280;55146;47.468;18.806;2023-06-14T08:36:00;99877.50;;;19.79;60.67
68301;BME280;55146;47.468;18.806;2023-06-14T08:38:25;99879.97;;;19.81;60.99
68301;BME280;55146;47.468;18.806;2023-06-14T08:40:52;99888.47;;;19.84;60.98
68301;BME280;55146;47.468;18.806;2023-06-14T08:43:18;99896.03;;;19.84;61.17
68301;BME280;55146;47.468;18.806;2023-06-14T08:45:46;99892.69;;;19.90;60.65
68301;BME280;55146;47.468;18.806;2023-06-14T08:48:13;99908.78;;;19.93;59.20
68301;BME280;55146;47.468;18.806;2023-06-14T08:50:43;99906.31;;;19.92;60.62
68301;BME280;55146;47.468;18.806;2023-06-14T08:53:11;99904.19;;;19.89;61.34
68301;BME280;55146;47.468;18.806;2023-06-14T08:55:45;99906.59;;;19.99;60.26
68301;BME280;55146;47.468;18.806;2023-06-14T08:58:10;99908.56;;;19.98;60.82
68301;BME280;55146;47.468;18.806;2023-06-14T09:00:39;99912.22;;;20.11;60.83
68301;BME280;55146;47.468;18.806;2023-06-14T09:03:06;99911.47;;;20.02;60.68
68301;BME280;55146;47.468;18.806;2023-06-14T09:05:38;99915.69;;;20.08;60.50
68301;BME280;55146;47.468;18.806;2023-06-14T09:08:03;99911.47;;;20.02;62.03
68301;BME280;55146;47.468;18.806;2023-06-14T09:10:31;99915.22;;;20.06;63.40
68301;BME280;55146;47.468;18.806;2023-06-14T09:13:01;99911.69;;;20.17;62.79
68301;BME280;55146;47.468;18.806;2023-06-14T09:15:26;99915.81;;;20.32;61.63
68301;BME280;55146;47.468;18.806;2023-06-14T09:17:53;99914.94;;;20.40;61.58
68301;BME280;55146;47.468;18.806;2023-06-14T09:20:18;99913.94;;;20.69;62.08
68301;BME280;55146;47.468;18.806;2023-06-14T09:22:44;99906.19;;;21.11;61.28
68301;BME280;55146;47.468;18.806;2023-06-14T09:25:10;99904.94;;;21.45;61.30
68301;BME280;55146;47.468;18.806;2023-06-14T09:27:37;99904.94;;;21.45;58.72
68301;BME280;55146;47.468;18.806;2023-06-14T09:30:05;99902.47;;;21.56;62.26
68301;BME280;55146;47.468;18.806;2023-06-14T09:32:38;99905.97;;;21.65;60.99
68301;BME280;55146;47.468;18.806;2023-06-14T09:35:08;99903.25;;;21.68;61.25
68301;BME280;55146;47.468;18.806;2023-06-14T09:37:34;99900.59;;;21.72;60.56
68301;BME280;55146;47.468;18.806;2023-06-14T09:40:00;99898.22;;;21.74;61.46
68301;BME280;55146;47.468;18.806;2023-06-14T09:42:25;99893.31;;;21.83;61.15
68301;BME280;55146;47.468;18.806;2023-06-14T09:44:53;99901.00;;;22.26;64.26
68301;BME280;55146;47.468;18.806;2023-06-14T09:47:20;99901.03;;;22.85;60.54
68301;BME280;55146;47.468;18.806;2023-06-14T09:49:47;99890.22;;;23.34;54.86
68301;BME280;55146;47.468;18.806;2023-06-14T09:52:20;99889.66;;;23.60;56.15
68301;BME280;55146;47.468;18.806;2023-06-14T09:54:46;99880.53;;;24.02;51.59
68301;BME280;55146;47.468;18.806;2023-06-14T09:57:22;99883.28;;;24.17;47.22
68301;BME280;55146;47.468;18.806;2023-06-14T09:59:49;99886.25;;;24.05;47.37
68301;BME280;55146;47.468;18.806;2023-06-14T10:02:29;99880.53;;;24.40;45.98
68301;BME280;55146;47.468;18.806;2023-06-14T10:05:09;99886.44;;;24.54;46.33
68301;BME280;55146;47.468;18.806;2023-06-14T10:10:07;99884.81;;;24.53;45.85
68301;BME280;55146;47.468;18.806;2023-06-14T10:12:33;99883.50;;;24.70;47.13
68301;BME280;55146;47.468;18.806;2023-06-14T10:14:59;99877.53;;;24.94;48.17
68301;BME280;55146;47.468;18.806;2023-06-14T10:17:43;99875.94;;;25.20;48.83
68301;BME280;55146;47.468;18.806;2023-06-14T10:22:49;99878.19;;;25.60;46.45
68301;BME280;55146;47.468;18.806;2023-06-14T10:25:31;99872.28;;;25.68;46.97
68301;BME280;55146;47.468;18.806;2023-06-14T10:28:23;99875.25;;;25.79;43.55
68301;BME280;55146;47.468;18.806;2023-06-14T10:31:10;99871.84;;;25.66;44.60
68301;BME280;55146;47.468;18.806;2023-06-14T10:33:50;99859.56;;;25.82;42.90
68301;BME280;55146;47.468;18.806;2023-06-14T10:38:57;99865.56;;;25.80;42.64
68301;BME280;55146;47.468;18.806;2023-06-14T10:41:23;99855.41;;;26.02;42.68
68301;BME280;55146;47.468;18.806;2023-06-14T10:43:48;99862.22;;;26.01;43.04
68301;BME280;55146;47.468;18.806;2023-06-14T10:46:18;99854.22;;;26.36;44.12
68301;BME280;55146;47.468;18.806;2023-06-14T10:48:46;99851.94;;;26.49;41.53
68301;BME280;55146;47.468;18.806;2023-06-14T10:51:16;99847.91;;;26.50;42.07
68301;BME280;55146;47.468;18.806;2023-06-14T10:53:46;99857.09;;;26.40;41.37
68301;BME280;55146;47.468;18.806;2023-06-14T10:56:28;99846.66;;;26.10;38.71
68301;BME280;55146;47.468;18.806;2023-06-14T10:58:54;99842.81;;;25.92;37.26
68301;BME280;55146;47.468;18.806;2023-06-14T11:01:36;99840.75;;;25.89;40.77
68301;BME280;55146;47.468;18.806;2023-06-14T11:04:09;99843.13;;;25.87;41.84
68301;BME280;55146;47.468;18.806;2023-06-14T11:06:48;99846.50;;;26.00;39.86
68301;BME280;55146;47.468;18.806;2023-06-14T11:09:37;99844.75;;;25.88;40.65
68301;BME280;55146;47.468;18.806;2023-06-14T11:12:11;99837.69;;;26.05;43.78
68301;BME280;55146;47.468;18.806;2023-06-14T11:14:38;99852.12;;;25.96;42.50
68301;BME280;55146;47.468;18.806;2023-06-14T11:17:04;99840.13;;;26.03;41.94
68301;BME280;55146;47.468;18.806;2023-06-14T11:19:30;99837.78;;;26.12;40.63
68301;BME280;55146;47.468;18.806;2023-06-14T11:21:55;99842.69;;;26.15;42.30
68301;BME280;55146;47.468;18.806;2023-06-14T11:24:20;99837.25;;;26.33;46.26
68301;BME280;55146;47.468;18.806;2023-06-14T11:26:47;99836.47;;;26.36;40.79
68301;BME280;55146;47.468;18.806;2023-06-14T11:29:15;99846.97;;;26.35;41.93
68301;BME280;55146;47.468;18.806;2023-06-14T11:31:43;99841.84;;;26.48;40.35
68301;BME280;55146;47.468;18.806;2023-06-14T11:34:11;99842.38;;;26.61;39.78
68301;BME280;55146;47.468;18.806;2023-06-14T11:36:38;99838.50;;;26.79;40.19
68301;BME280;55146;47.468;18.806;2023-06-14T11:39:05;99830.31;;;26.64;38.11
68301;BME280;55146;47.468;18.806;2023-06-14T11:41:44;99841.63;;;26.67;41.66
68301;BME280;55146;47.468;18.806;2023-06-14T11:44:10;99831.59;;;26.73;38.71
68301;BME280;55146;47.468;18.806;2023-06-14T11:46:35;99835.44;;;26.51;36.94
68301;BME280;55146;47.468;18.806;2023-06-14T11:49:02;99836.97;;;26.41;39.68
68301;BME280;55146;47.468;18.806;2023-06-14T11:51:33;99833.28;;;26.37;42.41
68301;BME280;55146;47.468;18.806;2023-06-14T11:53:59;99843.38;;;26.38;46.12
68301;BME280;55146;47.468;18.806;2023-06-14T11:56:25;99837.88;;;26.19;44.93
68301;BME280;55146;47.468;18.806;2023-06-14T11:58:52;99832.78;;;25.65;43.52
68301;BME280;55146;47.468;18.806;2023-06-14T12:01:18;99840.75;;;25.59;45.60
68301;BME280;55146;47.468;18.806;2023-06-14T12:03:47;99842.41;;;25.37;43.66
68301;BME280;55146;47.468;18.806;2023-06-14T12:06:13;99836.97;;;25.22;47.35
68301;BME280;55146;47.468;18.806;2023-06-14T12:08:40;99836.72;;;25.08;43.74
68301;BME280;55146;47.468;18.806;2023-06-14T12:11:14;99834.25;;;25.03;47.12
68301;BME280;55146;47.468;18.806;2023-06-14T12:13:43;99845.25;;;25.11;46.52
68301;BME280;55146;47.468;18.806;2023-06-14T12:16:12;99849.13;;;24.80;44.62
68301;BME280;55146;47.468;18.806;2023-06-14T12:18:39;99844.56;;;24.72;44.65
68301;BME280;55146;47.468;18.806;2023-06-14T12:21:07;99854.69;;;24.54;45.85
68301;BME280;55146;47.468;18.806;2023-06-14T12:23:58;99855.22;;;24.40;47.08
68301;BME280;55146;47.468;18.806;2023-06-14T12:26:24;99853.50;;;24.55;47.08
68301;BME280;55146;47.468;18.806;2023-06-14T12:28:51;99845.69;;;24.68;44.51
68301;BME280;55146;47.468;18.806;2023-06-14T12:31:16;99846.97;;;24.93;48.35
68301;BME280;55146;47.468;18.806;2023-06-14T12:33:43;99847.84;;;25.23;47.41
68301;BME280;55146;47.468;18.806;2023-06-14T12:36:10;99847.00;;;25.49;45.07
68301;BME280;55146;47.468;18.806;2023-06-14T12:38:37;99855.41;;;25.19;44.78
68301;BME280;55146;47.468;18.806;2023-06-14T12:41:03;99843.81;;;25.24;46.14
68301;BME280;55146;47.468;18.806;2023-06-14T12:43:28;99849.84;;;25.23;43.77
68301;BME280;55146;47.468;18.806;2023-06-14T12:45:54;99846.34;;;25.07;45.32
68301;BME280;55146;47.468;18.806;2023-06-14T12:48:20;99847.06;;;24.54;46.38
68301;BME280;55146;47.468;18.806;2023-06-14T12:50:46;99852.41;;;24.40;47.41
68301;BME280;55146;47.468;18.806;2023-06-14T12:53:11;99853.38;;;24.09;46.48
68301;BME280;55146;47.468;18.806;2023-06-14T12:55:37;99848.22;;;23.92;46.46
68301;BME280;55146;47.468;18.806;2023-06-14T12:58:02;99840.81;;;23.84;46.90
68301;BME280;55146;47.468;18.806;2023-06-14T13:00:28;99838.91;;;23.88;48.64
68301;BME280;55146;47.468;18.806;2023-06-14T13:02:55;99838.16;;;23.91;49.32